sensor_id;sensor_type;location;lat;lon;timestamp;temperature;humidity
12726;DHT22;6427;49.754;6.106;2023-05-27T00:02:07;13.30;77.80
12726;DHT22;6427;49.754;6.106;2023-05-27T00:04:35;13.20;77.90
12726;DHT22;6427;49.754;6.106;2023-05-27T00:07:03;13.40;78.00
12726;DHT22;6427;49.754;6.106;2023-05-27T00:09:30;13.40;77.60
12726;DHT22;6427;49.754;6.106;2023-05-27T00:11:58;13.30;77.70
12726;DHT22;6427;49.754;6.106;2023-05-27T00:14:26;13.20;78.00
12726;DHT22;6427;49.754;6.106;2023-05-27T00:16:53;13.20;78.30
12726;DHT22;6427;49.754;6.106;2023-05-27T00:19:22;13.00;78.60
12726;DHT22;6427;49.754;6.106;2023-05-27T00:21:49;13.10;78.70
12726;DHT22;6427;49.754;6.106;2023-05-27T00:24:17;13.00;78.90
12726;DHT22;6427;49.754;6.106;2023-05-27T00:26:45;13.00;79.10
12726;DHT22;6427;49.754;6.106;2023-05-27T00:29:12;12.90;79.30
12726;DHT22;6427;49.754;6.106;2023-05-27T00:31:41;12.80;80.00
12726;DHT22;6427;49.754;6.106;2023-05-27T00:34:08;12.80;80.00
12726;DHT22;6427;49.754;6.106;2023-05-27T00:36:36;12.70;80.10
12726;DHT22;6427;49.754;6.106;2023-05-27T00:39:04;12.70;80.50
12726;DHT22;6427;49.754;6.106;2023-05-27T00:41:32;13.00;80.50
12726;DHT22;6427;49.754;6.106;2023-05-27T00:44:00;13.00;80.40
12726;DHT22;6427;49.754;6.106;2023-05-27T00:46:29;13.10;79.90
12726;DHT22;6427;49.754;6.106;2023-05-27T00:48:57;13.00;79.70
12726;DHT22;6427;49.754;6.106;2023-05-27T00:51:24;12.80;80.30
12726;DHT22;6427;49.754;6.106;2023-05-27T00:53:52;12.70;80.80
12726;DHT22;6427;49.754;6.106;2023-05-27T00:56:20;12.50;81.10
12726;DHT22;6427;49.754;6.106;2023-05-27T00:58:47;12.70;81.50
12726;DHT22;6427;49.754;6.106;2023-05-27T01:01:15;12.60;81.10
12726;DHT22;6427;49.754;6.106;2023-05-27T01:03:43;12.40;81.80
12726;DHT22;6427;49.754;6.106;2023-05-27T01:06:21;12.40;81.80
12726;DHT22;6427;49.754;6.106;2023-05-27T01:09:05;12.30;82.10
12726;DHT22;6427;49.754;6.106;2023-05-27T01:11:32;12.20;82.30
12726;DHT22;6427;49.754;6.106;2023-05-27T01:14:00;12.10;82.70
12726;DHT22;6427;49.754;6.106;2023-05-27T01:16:27;12.10;82.70
12726;DHT22;6427;49.754;6.106;2023-05-27T01:18:55;12.10;82.90
12726;DHT22;6427;49.754;6.106;2023-05-27T01:21:23;12.10;82.90
12726;DHT22;6427;49.754;6.106;2023-05-27T01:23:51;12.10;82.90
12726;DHT22;6427;49.754;6.106;2023-05-27T01:26:18;12.10;83.00
12726;DHT22;6427;49.754;6.106;2023-05-27T01:28:46;12.10;83.10
12726;DHT22;6427;49.754;6.106;2023-05-27T01:31:19;12.20;83.10
12726;DHT22;6427;49.754;6.106;2023-05-27T01:33:42;12.20;82.60
12726;DHT22;6427;49.754;6.106;2023-05-27T01:36:12;12.20;82.80
12726;DHT22;6427;49.754;6.106;2023-05-27T01:38:37;12.10;82.90
12726;DHT22;6427;49.754;6.106;2023-05-27T01:41:04;12.10;83.10
12726;DHT22;6427;49.754;6.106;2023-05-27T01:43:32;12.00;83.20
12726;DHT22;6427;49.754;6.106;2023-05-27T01:46:00;12.00;83.40
12726;DHT22;6427;49.754;6.106;2023-05-27T01:48:27;11.90;83.60
12726;DHT22;6427;49.754;6.106;2023-05-27T01:50:55;11.90;83.70
12726;DHT22;6427;49.754;6.106;2023-05-27T01:53:23;11.80;84.10
12726;DHT22;6427;49.754;6.106;2023-05-27T01:55:51;11.80;84.00
12726;DHT22;6427;49.754;6.106;2023-05-27T01:58:18;11.80;84.10
12726;DHT22;6427;49.754;6.106;2023-05-27T02:00:46;11.80;84.30
12726;DHT22;6427;49.754;6.106;2023-05-27T02:03:14;12.00;85.20
12726;DHT22;6427;49.754;6.106;2023-05-27T02:05:43;12.00;84.40
12726;DHT22;6427;49.754;6.106;2023-05-27T02:08:11;12.00;83.90
12726;DHT22;6427;49.754;6.106;2023-05-27T02:10:39;12.10;83.30
12726;DHT22;6427;49.754;6.106;2023-05-27T02:13:07;12.10;83.40
12726;DHT22;6427;49.754;6.106;2023-05-27T02:15:34;12.00;83.50
12726;DHT22;6427;49.754;6.106;2023-05-27T02:18:02;12.00;83.70
12726;DHT22;6427;49.754;6.106;2023-05-27T02:20:30;11.90;83.80
12726;DHT22;6427;49.754;6.106;2023-05-27T02:22:58;11.90;84.00
12726;DHT22;6427;49.754;6.106;2023-05-27T02:25:26;12.10;84.00
12726;DHT22;6427;49.754;6.106;2023-05-27T02:27:54;12.00;83.50
12726;DHT22;6427;49.754;6.106;2023-05-27T02:30:23;12.00;83.70
12726;DHT22;6427;49.754;6.106;2023-05-27T02:32:51;11.90;83.90
12726;DHT22;6427;49.754;6.106;2023-05-27T02:35:20;11.80;84.30
12726;DHT22;6427;49.754;6.106;2023-05-27T02:37:47;11.80;84.30
12726;DHT22;6427;49.754;6.106;2023-05-27T02:40:25;12.00;84.80
12726;DHT22;6427;49.754;6.106;2023-05-27T02:42:44;11.90;84.10
12726;DHT22;6427;49.754;6.106;2023-05-27T02:45:11;11.90;84.00
12726;DHT22;6427;49.754;6.106;2023-05-27T02:47:39;11.90;84.20
12726;DHT22;6427;49.754;6.106;2023-05-27T02:50:07;11.80;84.40
12726;DHT22;6427;49.754;6.106;2023-05-27T02:52:35;11.70;84.90
12726;DHT22;6427;49.754;6.106;2023-05-27T02:55:03;11.70;84.90
12726;DHT22;6427;49.754;6.106;2023-05-27T02:57:30;11.70;84.90
12726;DHT22;6427;49.754;6.106;2023-05-27T02:59:58;11.70;85.10
12726;DHT22;6427;49.754;6.106;2023-05-27T03:02:26;11.60;85.20
12726;DHT22;6427;49.754;6.106;2023-05-27T03:04:54;11.60;85.30
12726;DHT22;6427;49.754;6.106;2023-05-27T03:07:21;11.60;85.50
12726;DHT22;6427;49.754;6.106;2023-05-27T03:09:48;11.60;85.80
12726;DHT22;6427;49.754;6.106;2023-05-27T03:12:16;11.50;85.90
12726;DHT22;6427;49.754;6.106;2023-05-27T03:14:44;11.70;86.30
12726;DHT22;6427;49.754;6.106;2023-05-27T03:17:11;11.70;85.70
12726;DHT22;6427;49.754;6.106;2023-05-27T03:19:39;11.60;85.90
12726;DHT22;6427;49.754;6.106;2023-05-27T03:22:07;11.80;86.00
12726;DHT22;6427;49.754;6.106;2023-05-27T03:24:34;11.80;85.60
12726;DHT22;6427;49.754;6.106;2023-05-27T03:27:02;11.70;85.80
12726;DHT22;6427;49.754;6.106;2023-05-27T03:29:30;11.80;86.20
12726;DHT22;6427;49.754;6.106;2023-05-27T03:31:58;11.80;86.20
12726;DHT22;6427;49.754;6.106;2023-05-27T03:34:25;11.80;85.70
12726;DHT22;6427;49.754;6.106;2023-05-27T03:36:53;11.70;86.00
12726;DHT22;6427;49.754;6.106;2023-05-27T03:39:21;11.60;86.50
12726;DHT22;6427;49.754;6.106;2023-05-27T03:41:49;11.60;86.50
12726;DHT22;6427;49.754;6.106;2023-05-27T03:44:17;11.50;86.70
12726;DHT22;6427;49.754;6.106;2023-05-27T03:46:45;11.50;86.80
12726;DHT22;6427;49.754;6.106;2023-05-27T03:49:14;11.50;87.00
12726;DHT22;6427;49.754;6.106;2023-05-27T03:51:41;11.50;87.20
12726;DHT22;6427;49.754;6.106;2023-05-27T03:54:09;11.40;87.40
12726;DHT22;6427;49.754;6.106;2023-05-27T03:56:36;11.40;87.60
12726;DHT22;6427;49.754;6.106;2023-05-27T03:59:04;11.40;87.70
12726;DHT22;6427;49.754;6.106;2023-05-27T04:01:32;11.40;87.80
12726;DHT22;6427;49.754;6.106;2023-05-27T04:03:59;11.40;87.90
12726;DHT22;6427;49.754;6.106;2023-05-27T04:06:27;11.50;88.10
12726;DHT22;6427;49.754;6.106;2023-05-27T04:08:54;11.40;88.30
12726;DHT22;6427;49.754;6.106;2023-05-27T04:11:23;11.40;88.40
12726;DHT22;6427;49.754;6.106;2023-05-27T04:13:50;11.40;88.50
12726;DHT22;6427;49.754;6.106;2023-05-27T04:16:18;11.60;88.80
12726;DHT22;6427;49.754;6.106;2023-05-27T04:18:46;11.60;88.80
12726;DHT22;6427;49.754;6.106;2023-05-27T04:21:15;11.60;88.40
12726;DHT22;6427;49.754;6.106;2023-05-27T04:23:43;11.60;88.80
12726;DHT22;6427;49.754;6.106;2023-05-27T04:26:11;11.60;89.50
12726;DHT22;6427;49.754;6.106;2023-05-27T04:28:39;11.50;88.70
12726;DHT22;6427;49.754;6.106;2023-05-27T04:31:07;11.60;88.90
12726;DHT22;6427;49.754;6.106;2023-05-27T04:33:40;11.60;89.20
12726;DHT22;6427;49.754;6.106;2023-05-27T04:36:08;11.50;89.20
12726;DHT22;6427;49.754;6.106;2023-05-27T04:38:35;11.60;89.40
12726;DHT22;6427;49.754;6.106;2023-05-27T04:41:03;11.60;89.50
12726;DHT22;6427;49.754;6.106;2023-05-27T04:43:31;11.60;89.60
12726;DHT22;6427;49.754;6.106;2023-05-27T04:45:58;11.60;89.70
12726;DHT22;6427;49.754;6.106;2023-05-27T04:48:29;11.70;90.10
12726;DHT22;6427;49.754;6.106;2023-05-27T04:50:57;11.70;90.00
12726;DHT22;6427;49.754;6.106;2023-05-27T04:53:25;11.70;90.00
12726;DHT22;6427;49.754;6.106;2023-05-27T04:55:52;11.80;90.00
12726;DHT22;6427;49.754;6.106;2023-05-27T04:58:20;12.00;90.00
12726;DHT22;6427;49.754;6.106;2023-05-27T05:00:48;12.10;90.00
12726;DHT22;6427;49.754;6.106;2023-05-27T05:03:19;12.00;89.50
12726;DHT22;6427;49.754;6.106;2023-05-27T05:05:52;12.10;89.60
12726;DHT22;6427;49.754;6.106;2023-05-27T05:08:16;12.40;89.60
12726;DHT22;6427;49.754;6.106;2023-05-27T05:10:45;12.40;89.00
12726;DHT22;6427;49.754;6.106;2023-05-27T05:13:12;12.60;88.60
12726;DHT22;6427;49.754;6.106;2023-05-27T05:15:41;12.50;88.80
12726;DHT22;6427;49.754;6.106;2023-05-27T05:18:10;12.50;89.20
12726;DHT22;6427;49.754;6.106;2023-05-27T05:20:37;12.50;89.10
12726;DHT22;6427;49.754;6.106;2023-05-27T05:23:06;12.80;89.30
12726;DHT22;6427;49.754;6.106;2023-05-27T05:25:33;12.80;88.70
12726;DHT22;6427;49.754;6.106;2023-05-27T05:28:02;12.80;88.90
12726;DHT22;6427;49.754;6.106;2023-05-27T05:30:29;12.80;88.90
12726;DHT22;6427;49.754;6.106;2023-05-27T05:32:59;12.80;88.90
12726;DHT22;6427;49.754;6.106;2023-05-27T05:35:27;12.80;88.90
12726;DHT22;6427;49.754;6.106;2023-05-27T05:37:54;12.90;89.10
12726;DHT22;6427;49.754;6.106;2023-05-27T05:40:22;13.10;89.40
12726;DHT22;6427;49.754;6.106;2023-05-27T05:42:49;13.40;88.40
12726;DHT22;6427;49.754;6.106;2023-05-27T05:45:18;13.40;88.20
12726;DHT22;6427;49.754;6.106;2023-05-27T05:47:46;13.40;88.20
12726;DHT22;6427;49.754;6.106;2023-05-27T05:50:13;13.40;88.40
12726;DHT22;6427;49.754;6.106;2023-05-27T05:52:42;13.60;87.90
12726;DHT22;6427;49.754;6.106;2023-05-27T05:55:10;13.60;87.80
12726;DHT22;6427;49.754;6.106;2023-05-27T05:57:38;13.60;87.70
12726;DHT22;6427;49.754;6.106;2023-05-27T06:00:06;13.70;88.00
12726;DHT22;6427;49.754;6.106;2023-05-27T06:02:33;13.70;88.20
12726;DHT22;6427;49.754;6.106;2023-05-27T06:05:01;13.70;88.00
12726;DHT22;6427;49.754;6.106;2023-05-27T06:07:30;13.80;87.90
12726;DHT22;6427;49.754;6.106;2023-05-27T06:09:57;14.00;87.70
12726;DHT22;6427;49.754;6.106;2023-05-27T06:12:25;14.10;87.20
12726;DHT22;6427;49.754;6.106;2023-05-27T06:14:53;14.40;86.80
12726;DHT22;6427;49.754;6.106;2023-05-27T06:17:22;14.50;86.10
12726;DHT22;6427;49.754;6.106;2023-05-27T06:19:49;14.50;86.10
12726;DHT22;6427;49.754;6.106;2023-05-27T06:22:17;14.50;86.10
12726;DHT22;6427;49.754;6.106;2023-05-27T06:24:45;14.70;85.40
12726;DHT22;6427;49.754;6.106;2023-05-27T06:27:12;14.80;85.10
12726;DHT22;6427;49.754;6.106;2023-05-27T06:29:40;14.80;84.50
12726;DHT22;6427;49.754;6.106;2023-05-27T06:32:08;14.70;84.30
12726;DHT22;6427;49.754;6.106;2023-05-27T06:34:36;14.70;84.20
12726;DHT22;6427;49.754;6.106;2023-05-27T06:37:04;14.80;84.10
12726;DHT22;6427;49.754;6.106;2023-05-27T06:39:32;14.80;84.10
12726;DHT22;6427;49.754;6.106;2023-05-27T06:42:01;14.90;83.30
12726;DHT22;6427;49.754;6.106;2023-05-27T06:44:28;14.90;83.20
12726;DHT22;6427;49.754;6.106;2023-05-27T06:46:56;15.00;82.90
12726;DHT22;6427;49.754;6.106;2023-05-27T06:49:23;15.00;82.40
12726;DHT22;6427;49.754;6.106;2023-05-27T06:51:51;15.10;82.20
12726;DHT22;6427;49.754;6.106;2023-05-27T06:54:19;15.10;82.30
12726;DHT22;6427;49.754;6.106;2023-05-27T06:56:47;15.50;81.80
12726;DHT22;6427;49.754;6.106;2023-05-27T06:59:15;15.50;82.50
12726;DHT22;6427;49.754;6.106;2023-05-27T07:01:42;15.50;81.50
12726;DHT22;6427;49.754;6.106;2023-05-27T07:04:10;15.80;80.10
12726;DHT22;6427;49.754;6.106;2023-05-27T07:06:38;15.70;79.40
12726;DHT22;6427;49.754;6.106;2023-05-27T07:09:07;15.70;79.30
12726;DHT22;6427;49.754;6.106;2023-05-27T07:11:34;15.70;79.30
12726;DHT22;6427;49.754;6.106;2023-05-27T07:14:02;15.70;79.40
12726;DHT22;6427;49.754;6.106;2023-05-27T07:16:30;15.80;79.20
12726;DHT22;6427;49.754;6.106;2023-05-27T07:18:58;15.80;79.20
12726;DHT22;6427;49.754;6.106;2023-05-27T07:21:25;15.90;79.60
12726;DHT22;6427;49.754;6.106;2023-05-27T07:23:53;16.00;79.30
12726;DHT22;6427;49.754;6.106;2023-05-27T07:26:21;16.00;78.40
12726;DHT22;6427;49.754;6.106;2023-05-27T07:28:49;16.30;78.00
12726;DHT22;6427;49.754;6.106;2023-05-27T07:31:17;16.30;77.50
12726;DHT22;6427;49.754;6.106;2023-05-27T07:33:44;16.30;77.60
12726;DHT22;6427;49.754;6.106;2023-05-27T07:36:12;16.40;77.50
12726;DHT22;6427;49.754;6.106;2023-05-27T07:38:40;16.40;77.70
12726;DHT22;6427;49.754;6.106;2023-05-27T07:41:07;16.50;78.00
12726;DHT22;6427;49.754;6.106;2023-05-27T07:43:36;16.80;75.70
12726;DHT22;6427;49.754;6.106;2023-05-27T07:46:03;16.70;75.60
12726;DHT22;6427;49.754;6.106;2023-05-27T07:48:31;16.80;75.00
12726;DHT22;6427;49.754;6.106;2023-05-27T07:50:59;16.80;75.20
12726;DHT22;6427;49.754;6.106;2023-05-27T07:53:26;16.80;75.20
12726;DHT22;6427;49.754;6.106;2023-05-27T07:55:54;16.80;75.30
12726;DHT22;6427;49.754;6.106;2023-05-27T07:58:22;16.80;75.30
12726;DHT22;6427;49.754;6.106;2023-05-27T08:00:50;17.00;75.50
12726;DHT22;6427;49.754;6.106;2023-05-27T08:03:18;17.00;75.50
12726;DHT22;6427;49.754;6.106;2023-05-27T08:05:45;17.10;75.60
12726;DHT22;6427;49.754;6.106;2023-05-27T08:08:13;17.40;75.50
12726;DHT22;6427;49.754;6.106;2023-05-27T08:10:40;17.80;74.50
12726;DHT22;6427;49.754;6.106;2023-05-27T08:13:08;18.00;73.70
12726;DHT22;6427;49.754;6.106;2023-05-27T08:15:36;18.10;73.10
12726;DHT22;6427;49.754;6.106;2023-05-27T08:18:03;18.10;72.80
12726;DHT22;6427;49.754;6.106;2023-05-27T08:20:31;18.20;72.80
12726;DHT22;6427;49.754;6.106;2023-05-27T08:22:58;18.20;72.30
12726;DHT22;6427;49.754;6.106;2023-05-27T08:25:26;18.20;72.30
12726;DHT22;6427;49.754;6.106;2023-05-27T08:27:54;18.20;71.00
12726;DHT22;6427;49.754;6.106;2023-05-27T08:30:21;18.50;70.50
12726;DHT22;6427;49.754;6.106;2023-05-27T08:32:49;18.70;69.50
12726;DHT22;6427;49.754;6.106;2023-05-27T08:35:17;18.70;69.50
12726;DHT22;6427;49.754;6.106;2023-05-27T08:37:45;18.60;69.40
12726;DHT22;6427;49.754;6.106;2023-05-27T08:40:17;18.70;69.80
12726;DHT22;6427;49.754;6.106;2023-05-27T08:42:43;18.70;69.60
12726;DHT22;6427;49.754;6.106;2023-05-27T08:45:10;18.70;69.70
12726;DHT22;6427;49.754;6.106;2023-05-27T08:47:38;18.80;70.00
12726;DHT22;6427;49.754;6.106;2023-05-27T08:50:07;18.80;69.20
12726;DHT22;6427;49.754;6.106;2023-05-27T08:52:37;18.80;69.20
12726;DHT22;6427;49.754;6.106;2023-05-27T08:55:02;18.90;68.50
12726;DHT22;6427;49.754;6.106;2023-05-27T08:57:31;18.90;68.30
12726;DHT22;6427;49.754;6.106;2023-05-27T08:59:58;18.90;68.80
12726;DHT22;6427;49.754;6.106;2023-05-27T09:02:26;18.90;68.70
12726;DHT22;6427;49.754;6.106;2023-05-27T09:04:53;19.00;69.70
12726;DHT22;6427;49.754;6.106;2023-05-27T09:07:20;19.30;69.10
12726;DHT22;6427;49.754;6.106;2023-05-27T09:09:57;19.60;67.70
12726;DHT22;6427;49.754;6.106;2023-05-27T09:12:25;19.60;67.40
12726;DHT22;6427;49.754;6.106;2023-05-27T09:14:53;20.00;65.90
12726;DHT22;6427;49.754;6.106;2023-05-27T09:17:23;20.00;65.80
12726;DHT22;6427;49.754;6.106;2023-05-27T09:19:52;20.00;65.60
12726;DHT22;6427;49.754;6.106;2023-05-27T09:22:31;20.00;65.10
12726;DHT22;6427;49.754;6.106;2023-05-27T09:24:55;20.00;65.10
12726;DHT22;6427;49.754;6.106;2023-05-27T09:27:29;20.20;63.40
12726;DHT22;6427;49.754;6.106;2023-05-27T09:29:56;20.20;63.60
12726;DHT22;6427;49.754;6.106;2023-05-27T09:32:27;20.10;65.20
12726;DHT22;6427;49.754;6.106;2023-05-27T09:34:55;20.10;64.50
12726;DHT22;6427;49.754;6.106;2023-05-27T09:37:28;20.20;64.40
12726;DHT22;6427;49.754;6.106;2023-05-27T09:40:05;20.40;64.10
12726;DHT22;6427;49.754;6.106;2023-05-27T09:45:12;20.40;62.90
12726;DHT22;6427;49.754;6.106;2023-05-27T09:47:40;20.40;62.10
12726;DHT22;6427;49.754;6.106;2023-05-27T09:50:07;20.40;62.50
12726;DHT22;6427;49.754;6.106;2023-05-27T09:52:38;20.50;62.80
12726;DHT22;6427;49.754;6.106;2023-05-27T09:55:02;20.50;61.80
12726;DHT22;6427;49.754;6.106;2023-05-27T09:57:30;20.60;61.20
12726;DHT22;6427;49.754;6.106;2023-05-27T09:59:58;20.70;61.00
12726;DHT22;6427;49.754;6.106;2023-05-27T10:02:25;20.80;61.10
12726;DHT22;6427;49.754;6.106;2023-05-27T10:04:52;20.90;61.40
12726;DHT22;6427;49.754;6.106;2023-05-27T10:07:20;20.90;60.00
12726;DHT22;6427;49.754;6.106;2023-05-27T10:09:48;21.00;59.50
12726;DHT22;6427;49.754;6.106;2023-05-27T10:12:15;21.00;59.70
12726;DHT22;6427;49.754;6.106;2023-05-27T10:14:43;21.20;59.80
12726;DHT22;6427;49.754;6.106;2023-05-27T10:17:10;21.30;59.60
12726;DHT22;6427;49.754;6.106;2023-05-27T10:19:48;21.30;59.40
12726;DHT22;6427;49.754;6.106;2023-05-27T10:22:11;21.60;57.00
12726;DHT22;6427;49.754;6.106;2023-05-27T10:24:39;21.70;56.50
12726;DHT22;6427;49.754;6.106;2023-05-27T10:27:06;21.60;56.50
12726;DHT22;6427;49.754;6.106;2023-05-27T10:29:37;21.70;56.90
12726;DHT22;6427;49.754;6.106;2023-05-27T10:32:04;21.70;57.00
12726;DHT22;6427;49.754;6.106;2023-05-27T10:34:35;21.80;56.90
12726;DHT22;6427;49.754;6.106;2023-05-27T10:37:03;22.00;55.60
12726;DHT22;6427;49.754;6.106;2023-05-27T10:39:31;22.00;55.60
12726;DHT22;6427;49.754;6.106;2023-05-27T10:41:58;22.00;55.50
12726;DHT22;6427;49.754;6.106;2023-05-27T10:47:00;22.10;55.90
12726;DHT22;6427;49.754;6.106;2023-05-27T10:49:27;22.10;55.80
12726;DHT22;6427;49.754;6.106;2023-05-27T10:51:55;22.20;56.10
12726;DHT22;6427;49.754;6.106;2023-05-27T10:54:24;22.60;55.70
12726;DHT22;6427;49.754;6.106;2023-05-27T10:56:51;22.60;55.60
12726;DHT22;6427;49.754;6.106;2023-05-27T10:59:22;22.60;55.60
12726;DHT22;6427;49.754;6.106;2023-05-27T11:01:46;22.80;55.80
12726;DHT22;6427;49.754;6.106;2023-05-27T11:04:13;22.80;55.50
12726;DHT22;6427;49.754;6.106;2023-05-27T11:06:41;22.80;55.50
12726;DHT22;6427;49.754;6.106;2023-05-27T11:09:09;22.80;55.70
12726;DHT22;6427;49.754;6.106;2023-05-27T11:11:36;22.80;56.00
12726;DHT22;6427;49.754;6.106;2023-05-27T11:14:04;23.00;55.80
12726;DHT22;6427;49.754;6.106;2023-05-27T11:16:31;23.00;55.10
12726;DHT22;6427;49.754;6.106;2023-05-27T11:18:59;23.00;55.10
12726;DHT22;6427;49.754;6.106;2023-05-27T11:21:27;23.00;55.20
12726;DHT22;6427;49.754;6.106;2023-05-27T11:23:54;23.20;55.10
12726;DHT22;6427;49.754;6.106;2023-05-27T11:26:22;23.20;55.20
12726;DHT22;6427;49.754;6.106;2023-05-27T11:28:53;23.30;55.10
12726;DHT22;6427;49.754;6.106;2023-05-27T11:31:21;23.30;54.90
12726;DHT22;6427;49.754;6.106;2023-05-27T11:33:51;23.30;54.80
12726;DHT22;6427;49.754;6.106;2023-05-27T11:36:18;23.30;55.00
12726;DHT22;6427;49.754;6.106;2023-05-27T11:41:20;23.40;54.40
12726;DHT22;6427;49.754;6.106;2023-05-27T11:43:54;23.40;54.80
12726;DHT22;6427;49.754;6.106;2023-05-27T11:46:18;23.40;54.80
12726;DHT22;6427;49.754;6.106;2023-05-27T11:48:45;23.50;55.20
12726;DHT22;6427;49.754;6.106;2023-05-27T11:51:13;23.60;55.00
12726;DHT22;6427;49.754;6.106;2023-05-27T11:53:46;23.70;54.30
12726;DHT22;6427;49.754;6.106;2023-05-27T11:56:14;23.90;54.00
12726;DHT22;6427;49.754;6.106;2023-05-27T11:58:42;23.80;53.90
12726;DHT22;6427;49.754;6.106;2023-05-27T12:01:10;23.80;53.90
12726;DHT22;6427;49.754;6.106;2023-05-27T12:03:37;23.70;54.20
12726;DHT22;6427;49.754;6.106;2023-05-27T12:06:06;23.70;54.50
12726;DHT22;6427;49.754;6.106;2023-05-27T12:08:33;23.70;54.40
12726;DHT22;6427;49.754;6.106;2023-05-27T12:11:02;24.00;54.20
12726;DHT22;6427;49.754;6.106;2023-05-27T12:13:29;24.00;54.20
12726;DHT22;6427;49.754;6.106;2023-05-27T12:15:57;24.00;53.70
12726;DHT22;6427;49.754;6.106;2023-05-27T12:18:24;24.10;53.80
12726;DHT22;6427;49.754;6.106;2023-05-27T12:20:52;24.20;53.50
12726;DHT22;6427;49.754;6.106;2023-05-27T12:23:19;24.10;53.00
12726;DHT22;6427;49.754;6.106;2023-05-27T12:25:47;24.10;52.80
12726;DHT22;6427;49.754;6.106;2023-05-27T12:28:15;24.10;53.30
12726;DHT22;6427;49.754;6.106;2023-05-27T12:30:42;24.30;52.60
12726;DHT22;6427;49.754;6.106;2023-05-27T12:33:10;24.30;52.40
12726;DHT22;6427;49.754;6.106;2023-05-27T12:35:38;24.40;52.70
12726;DHT22;6427;49.754;6.106;2023-05-27T12:38:06;24.40;52.70
12726;DHT22;6427;49.754;6.106;2023-05-27T12:40:34;24.50;52.00
12726;DHT22;6427;49.754;6.106;2023-05-27T12:43:03;24.50;51.90
12726;DHT22;6427;49.754;6.106;2023-05-27T12:45:30;24.50;51.90
12726;DHT22;6427;49.754;6.106;2023-05-27T12:47:58;24.60;52.20
12726;DHT22;6427;49.754;6.106;2023-05-27T12:50:25;24.60;52.20
12726;DHT22;6427;49.754;6.106;2023-05-27T12:52:53;24.70;51.70
12726;DHT22;6427;49.754;6.106;2023-05-27T12:55:21;24.90;52.10
12726;DHT22;6427;49.754;6.106;2023-05-27T12:57:50;24.90;51.90
12726;DHT22;6427;49.754;6.106;2023-05-27T13:00:18;24.90;51.90
12726;DHT22;6427;49.754;6.106;2023-05-27T13:02:45;25.20;51.40
12726;DHT22;6427;49.754;6.106;2023-05-27T13:05:13;25.30;51.50
12726;DHT22;6427;49.754;6.106;2023-05-27T13:07:40;25.30;51.40
12726;DHT22;6427;49.754;6.106;2023-05-27T13:10:11;25.50;51.20
12726;DHT22;6427;49.754;6.106;2023-05-27T13:12:39;25.50;50.40
12726;DHT22;6427;49.754;6.106;2023-05-27T13:15:07;25.50;50.30
12726;DHT22;6427;49.754;6.106;2023-05-27T13:17:35;25.60;50.00
12726;DHT22;6427;49.754;6.106;2023-05-27T13:20:02;25.60;49.90
12726;DHT22;6427;49.754;6.106;2023-05-27T13:22:31;25.60;49.70
12726;DHT22;6427;49.754;6.106;2023-05-27T13:24:58;25.60;49.60
12726;DHT22;6427;49.754;6.106;2023-05-27T13:27:26;25.60;49.20
12726;DHT22;6427;49.754;6.106;2023-05-27T13:29:53;25.60;49.00
12726;DHT22;6427;49.754;6.106;2023-05-27T13:32:21;25.60;49.50
12726;DHT22;6427;49.754;6.106;2023-05-27T13:34:49;25.80;49.10
12726;DHT22;6427;49.754;6.106;2023-05-27T13:37:17;25.70;49.00
12726;DHT22;6427;49.754;6.106;2023-05-27T13:39:44;25.80;48.90
12726;DHT22;6427;49.754;6.106;2023-05-27T13:42:12;25.80;49.20
12726;DHT22;6427;49.754;6.106;2023-05-27T13:44:40;25.90;49.40
12726;DHT22;6427;49.754;6.106;2023-05-27T13:47:08;25.80;48.70
12726;DHT22;6427;49.754;6.106;2023-05-27T13:49:36;25.90;48.30
12726;DHT22;6427;49.754;6.106;2023-05-27T13:52:03;26.00;48.40
12726;DHT22;6427;49.754;6.106;2023-05-27T13:54:31;26.10;48.40
12726;DHT22;6427;49.754;6.106;2023-05-27T13:56:58;26.20;48.50
12726;DHT22;6427;49.754;6.106;2023-05-27T13:59:27;26.50;47.40
12726;DHT22;6427;49.754;6.106;2023-05-27T14:01:54;26.40;46.80
12726;DHT22;6427;49.754;6.106;2023-05-27T14:04:22;26.50;47.00
12726;DHT22;6427;49.754;6.106;2023-05-27T14:06:50;26.50;46.90
12726;DHT22;6427;49.754;6.106;2023-05-27T14:09:17;26.40;46.20
12726;DHT22;6427;49.754;6.106;2023-05-27T14:11:45;26.40;46.60
12726;DHT22;6427;49.754;6.106;2023-05-27T14:14:12;26.40;46.80
12726;DHT22;6427;49.754;6.106;2023-05-27T14:16:40;26.50;46.50
12726;DHT22;6427;49.754;6.106;2023-05-27T14:19:08;26.60;46.20
12726;DHT22;6427;49.754;6.106;2023-05-27T14:21:35;26.60;46.00
12726;DHT22;6427;49.754;6.106;2023-05-27T14:24:03;26.70;46.50
12726;DHT22;6427;49.754;6.106;2023-05-27T14:26:30;26.80;45.90
12726;DHT22;6427;49.754;6.106;2023-05-27T14:28:58;26.80;45.70
12726;DHT22;6427;49.754;6.106;2023-05-27T14:31:26;26.90;45.40
12726;DHT22;6427;49.754;6.106;2023-05-27T14:33:54;26.90;45.30
12726;DHT22;6427;49.754;6.106;2023-05-27T14:36:22;26.90;46.00
12726;DHT22;6427;49.754;6.106;2023-05-27T14:38:49;27.00;45.40
12726;DHT22;6427;49.754;6.106;2023-05-27T14:41:17;27.10;45.30
12726;DHT22;6427;49.754;6.106;2023-05-27T14:43:44;27.30;44.70
12726;DHT22;6427;49.754;6.106;2023-05-27T14:46:12;27.30;45.00
12726;DHT22;6427;49.754;6.106;2023-05-27T14:48:40;27.40;44.50
12726;DHT22;6427;49.754;6.106;2023-05-27T14:51:07;27.60;44.00
12726;DHT22;6427;49.754;6.106;2023-05-27T14:53:35;28.10;43.50
12726;DHT22;6427;49.754;6.106;2023-05-27T14:56:03;28.10;43.40
12726;DHT22;6427;49.754;6.106;2023-05-27T14:58:31;28.20;43.20
12726;DHT22;6427;49.754;6.106;2023-05-27T15:00:58;28.40;43.10
12726;DHT22;6427;49.754;6.106;2023-05-27T15:03:26;28.50;42.70
12726;DHT22;6427;49.754;6.106;2023-05-27T15:05:54;28.60;42.30
12726;DHT22;6427;49.754;6.106;2023-05-27T15:08:26;28.50;42.70
12726;DHT22;6427;49.754;6.106;2023-05-27T15:10:54;28.70;42.80
12726;DHT22;6427;49.754;6.106;2023-05-27T15:13:22;28.70;42.70
12726;DHT22;6427;49.754;6.106;2023-05-27T15:15:50;29.00;40.70
12726;DHT22;6427;49.754;6.106;2023-05-27T15:18:18;28.90;40.70
12726;DHT22;6427;49.754;6.106;2023-05-27T15:20:45;29.00;41.20
12726;DHT22;6427;49.754;6.106;2023-05-27T15:23:13;28.90;40.90
12726;DHT22;6427;49.754;6.106;2023-05-27T15:25:41;29.00;40.70
12726;DHT22;6427;49.754;6.106;2023-05-27T15:28:09;29.00;40.70
12726;DHT22;6427;49.754;6.106;2023-05-27T15:30:37;29.10;40.40
12726;DHT22;6427;49.754;6.106;2023-05-27T15:33:05;29.20;40.50
12726;DHT22;6427;49.754;6.106;2023-05-27T15:35:33;29.20;40.40
12726;DHT22;6427;49.754;6.106;2023-05-27T15:38:01;29.30;40.10
12726;DHT22;6427;49.754;6.106;2023-05-27T15:40:28;29.30;39.30
12726;DHT22;6427;49.754;6.106;2023-05-27T15:42:56;29.50;38.60
12726;DHT22;6427;49.754;6.106;2023-05-27T15:45:23;29.50;38.70
12726;DHT22;6427;49.754;6.106;2023-05-27T15:47:51;29.40;38.70
12726;DHT22;6427;49.754;6.106;2023-05-27T15:50:19;29.40;38.90
12726;DHT22;6427;49.754;6.106;2023-05-27T15:52:46;29.60;38.90
12726;DHT22;6427;49.754;6.106;2023-05-27T15:55:14;29.70;39.20
12726;DHT22;6427;49.754;6.106;2023-05-27T15:57:42;30.10;38.00